^^
Station Historical Data
Daily Summary for January 8, 2018 Units:  Both    English   Metric
« Previous Day
Next Day »
Daily Weekly Monthly Yearly Custom
  High: Low: Average:
Temperature: TemperatureF °F /  -17.8 °C 76.8 °F /  24.9 °C 80.2 °F /  26.8 °C
Dew Point: DewpointF °F /  -17.8 °C 36.5 °F /  2.5 °C 39.3 °F /  4.1 °C
Humidity: Humidity% 17% 22%
Wind Speed: WindSpeedMPHmph /  0km/h - -16.6mph /  -26.7km/h
Wind Gust: WindSpeedGustMPHmph /  0km/h - -
Wind- -
Pressure: PressureIn in /  0 hPa 30.10 in /  1019.2 hPa -
Precipitation: 0.00 in /  0 mm    
Historical Graphs
 
 
Tabular Data for January 8, 2018
Time Temperature Dew Point Pressure Wind Wind Speed Wind Gust Humidity Rainfall Rate (Hourly) solar Conditions
TemperatureF °F /  -17.8 °C DewpointF °F /  -17.8 °C PressureInin /  0hPa Calm     Humidity% HourlyPrecipInin /  0mm SoftwareType W/m2 Conditions
11:20 81.9 °F /  27.7 °C 40.5 °F /  4.7 °C 30.20in /  1022.6hPa South 2.0mph /  3.2km/h 5.0mph /  8km/h 23% 0.00in /  0mm meteobridge W/m2
11:26 82.9 °F /  28.3 °C 41.4 °F /  5.2 °C 30.20in /  1022.6hPa South 4.9mph /  7.9km/h 13.0mph /  20.9km/h 23% 0.00in /  0mm meteobridge W/m2
11:34 82.6 °F /  28.1 °C 41.0 °F /  5 °C 30.19in /  1022.2hPa South 4.9mph /  7.9km/h 8.0mph /  12.9km/h 23% 0.00in /  0mm meteobridge W/m2
11:40 81.3 °F /  27.4 °C 41.0 °F /  5 °C 30.19in /  1022.2hPa Calm   5.0mph /  8km/h 24% 0.00in /  0mm meteobridge W/m2
11:50 81.5 °F /  27.5 °C 41.2 °F /  5.1 °C 30.19in /  1022.2hPa SE 2.0mph /  3.2km/h 4.0mph /  6.4km/h 24% 0.00in /  0mm meteobridge W/m2
12:00 80.8 °F /  27.1 °C 41.7 °F /  5.4 °C 30.19in /  1022.2hPa ESE 2.9mph /  4.7km/h 5.0mph /  8km/h 25% 0.00in /  0mm meteobridge W/m2
12:06 81.7 °F /  27.6 °C 41.4 °F /  5.2 °C 30.19in /  1022.2hPa SSE 10.1mph /  16.3km/h 10.1mph /  16.3km/h 24% 0.00in /  0mm meteobridge W/m2
12:14 80.1 °F /  26.7 °C 41.0 °F /  5 °C 30.19in /  1022.2hPa Calm   4.0mph /  6.4km/h 25% 0.00in /  0mm meteobridge W/m2
12:20 81.1 °F /  27.3 °C 39.7 °F /  4.3 °C 30.19in /  1022.2hPa ESE 6.0mph /  9.7km/h 7.0mph /  11.3km/h 23% 0.00in /  0mm meteobridge W/m2
12:26 80.8 °F /  27.1 °C 40.6 °F /  4.8 °C 30.19in /  1022.2hPa South 8.9mph /  14.3km/h 11.0mph /  17.7km/h 24% 0.00in /  0mm meteobridge W/m2
12:32 82.8 °F /  28.2 °C 41.2 °F /  5.1 °C 30.19in /  1022.2hPa SSE 4.0mph /  6.4km/h 10.0mph /  16.1km/h 23% 0.00in /  0mm meteobridge W/m2
12:38 82.9 °F /  28.3 °C 41.4 °F /  5.2 °C 30.19in /  1022.2hPa SSE 8.1mph /  13km/h 15.0mph /  24.1km/h 23% 0.00in /  0mm meteobridge W/m2
12:46 84.6 °F /  29.2 °C 39.0 °F /  3.9 °C 30.18in /  1021.9hPa SSW 2.9mph /  4.7km/h 10.0mph /  16.1km/h 20% 0.00in /  0mm meteobridge W/m2
12:57 85.1 °F /  29.5 °C 40.8 °F /  4.9 °C 30.18in /  1021.9hPa South 4.0mph /  6.4km/h 14.0mph /  22.5km/h 21% 0.00in /  0mm meteobridge W/m2
13:05 83.5 °F /  28.6 °C 40.6 °F /  4.8 °C 30.18in /  1021.9hPa Calm   12.0mph /  19.3km/h 22% 0.00in /  0mm meteobridge W/m2
13:11 84.4 °F /  29.1 °C 40.1 °F /  4.5 °C 30.17in /  1021.6hPa SSW 4.9mph /  7.9km/h 11.0mph /  17.7km/h 21% 0.00in /  0mm meteobridge W/m2
13:19 81.7 °F /  27.6 °C 39.2 °F /  4 °C 30.18in /  1021.9hPa South 8.9mph /  14.3km/h 13.0mph /  20.9km/h 22% 0.00in /  0mm meteobridge W/m2
13:35 84.4 °F /  29.1 °C 40.1 °F /  4.5 °C 30.17in /  1021.6hPa South 4.9mph /  7.9km/h 14.0mph /  22.5km/h 21% 0.00in /  0mm meteobridge W/m2
13:47 83.8 °F /  28.8 °C 39.7 °F /  4.3 °C 30.17in /  1021.6hPa SSE 2.9mph /  4.7km/h 10.0mph /  16.1km/h 21% 0.00in /  0mm meteobridge W/m2
13:53 84.0 °F /  28.9 °C 39.9 °F /  4.4 °C 30.17in /  1021.6hPa Calm   2.0mph /  3.2km/h 21% 0.00in /  0mm meteobridge W/m2
14:04 83.5 °F /  28.6 °C 38.1 °F /  3.4 °C 30.16in /  1021.2hPa SSE 12.1mph /  19.5km/h 13.0mph /  20.9km/h 20% 0.00in /  0mm meteobridge W/m2
14:14 85.5 °F /  29.7 °C 38.5 °F /  3.6 °C 30.16in /  1021.2hPa SSE 10.1mph /  16.3km/h 18.0mph /  29km/h 19% 0.00in /  0mm meteobridge W/m2
14:24 84.7 °F /  29.3 °C 37.9 °F /  3.3 °C 30.16in /  1021.2hPa SSE 4.9mph /  7.9km/h 14.0mph /  22.5km/h 19% 0.00in /  0mm meteobridge W/m2
14:43 86.0 °F /  30 °C 37.6 °F /  3.1 °C 30.16in /  1021.2hPa South 10.1mph /  16.3km/h 16.0mph /  25.7km/h 18% 0.00in /  0mm meteobridge W/m2
15:11 86.5 °F /  30.3 °C 36.5 °F /  2.5 °C 30.16in /  1021.2hPa SSE 4.9mph /  7.9km/h 10.0mph /  16.1km/h 17% 0.00in /  0mm meteobridge W/m2
16:39 85.6 °F /  29.8 °C 39.9 °F /  4.4 °C 30.12in /  1019.9hPa SSE 6.0mph /  9.7km/h 19.0mph /  30.6km/h 20% 0.00in /  0mm meteobridge W/m2
16:53 84.7 °F /  29.3 °C 37.9 °F /  3.3 °C 30.11in /  1019.5hPa SSE 2.9mph /  4.7km/h 9.0mph /  14.5km/h 19% 0.00in /  0mm meteobridge W/m2
17:00 84.6 °F /  29.2 °C 37.8 °F /  3.2 °C 30.11in /  1019.5hPa SSE 2.0mph /  3.2km/h 5.0mph /  8km/h 19% 0.00in /  0mm meteobridge W/m2
17:47 85.6 °F /  29.8 °C 38.7 °F /  3.7 °C 30.11in /  1019.5hPa East 0.9mph /  1.4km/h 5.0mph /  8km/h 19% 0.00in /  0mm meteobridge W/m2
18:07 83.7 °F /  28.7 °C 39.6 °F /  4.2 °C 30.10in /  1019.2hPa South 12.1mph /  19.5km/h 16.0mph /  25.7km/h 21% 0.00in /  0mm meteobridge W/m2
18:27 82.9 °F /  28.3 °C 39.0 °F /  3.9 °C 30.11in /  1019.5hPa SSE 10.1mph /  16.3km/h 14.0mph /  22.5km/h 21% 0.00in /  0mm meteobridge W/m2
18:34 82.6 °F /  28.1 °C 38.7 °F /  3.7 °C 30.12in /  1019.9hPa SSE 11.0mph /  17.7km/h 19.0mph /  30.6km/h 21% 0.00in /  0mm meteobridge W/m2
18:43 81.7 °F /  27.6 °C 39.2 °F /  4 °C 30.11in /  1019.5hPa SSE 8.9mph /  14.3km/h 18.0mph /  29km/h 22% 0.00in /  0mm meteobridge W/m2
18:50 81.1 °F /  27.3 °C 39.7 °F /  4.3 °C 30.11in /  1019.5hPa SSE 11.0mph /  17.7km/h 16.0mph /  25.7km/h 23% 0.00in /  0mm meteobridge W/m2
18:58 80.2 °F /  26.8 °C 40.1 °F /  4.5 °C 30.12in /  1019.9hPa South 11.0mph /  17.7km/h 13.0mph /  20.9km/h 24% 0.00in /  0mm meteobridge W/m2
19:17 78.6 °F /  25.9 °C 41.9 °F /  5.5 °C 30.12in /  1019.9hPa SSE 11.0mph /  17.7km/h 18.0mph /  29km/h 27% 0.00in /  0mm meteobridge W/m2
19:18 78.3 °F /  25.7 °C 42.4 °F /  5.8 °C 30.12in /  1019.9hPa SE 12.1mph /  19.5km/h 17.0mph /  27.4km/h 28% 0.00in /  0mm meteobridge W/m2
19:20 78.1 °F /  25.6 °C 42.3 °F /  5.7 °C 30.12in /  1019.9hPa SE 8.9mph /  14.3km/h 11.0mph /  17.7km/h 28% 0.00in /  0mm meteobridge W/m2
19:27 77.7 °F /  25.4 °C 43.0 °F /  6.1 °C 30.12in /  1019.9hPa South 6.9mph /  11.1km/h 13.0mph /  20.9km/h 29% 0.00in /  0mm meteobridge W/m2
19:33 76.8 °F /  24.9 °C 42.1 °F /  5.6 °C 30.12in /  1019.9hPa SSW 10.1mph /  16.3km/h 17.0mph /  27.4km/h 29% 0.00in /  0mm meteobridge W/m2
19:39 76.8 °F /  24.9 °C 42.1 °F /  5.6 °C 30.12in /  1019.9hPa SSW 10.1mph /  16.3km/h -999.0mph /  -1607.7km/h 29% 0.00in /  0mm meteobridge W/m2
19:44 76.8 °F /  24.9 °C 42.1 °F /  5.6 °C 30.13in /  1020.2hPa SSW 10.1mph /  16.3km/h -999.0mph /  -1607.7km/h 29% 0.00in /  0mm meteobridge W/m2
19:50 76.8 °F /  24.9 °C 42.1 °F /  5.6 °C 30.13in /  1020.2hPa North -999.9mph /  -1609.1km/h -999.0mph /  -1607.7km/h 29% 0.00in /  0mm meteobridge W/m2
Regenstein, Windhoek, Namibia
Compliments of Weather Underground - 2 mb